Time;durP1;ratioP1;P1;durP2;ratioP2;P2;SDS_P1;SDS_P2;PMS_P1;PMS_P2;Temp;Humidity;BMP_temperature;BMP_pressure;BME280_temperature;BME280_humidity;BME280_pressure;Samples;Min_cycle;Max_cycle;Signal;HPM_P1;HPM_P2
2022/04/14 00:01:25;;;;;;;22.10;13.30;;;10.30;99.90;;;;;;5005076;28;20151;-71
2022/04/14 00:03:50;;;;;;;18.77;11.95;;;10.30;99.90;;;;;;5026737;28;20069;-72
2022/04/14 00:06:16;;;;;;;20.80;13.43;;;10.30;99.90;;;;;;5004038;28;20042;-72
2022/04/14 00:08:42;;;;;;;21.55;13.77;;;10.20;99.90;;;;;;5006152;28;20060;-72
2022/04/14 00:11:07;;;;;;;22.85;13.45;;;10.20;99.90;;;;;;5021400;28;20121;-72
2022/04/14 00:13:33;;;;;;;18.90;13.25;;;10.20;99.90;;;;;;5022891;28;20060;-71
2022/04/14 00:15:59;;;;;;;21.15;13.18;;;10.20;99.90;;;;;;5004697;28;20053;-72
2022/04/14 00:18:24;;;;;;;22.45;14.07;;;10.20;99.90;;;;;;5006005;28;20041;-72
2022/04/14 00:20:50;;;;;;;22.88;14.43;;;10.20;99.90;;;;;;5023632;28;20072;-72
2022/04/14 00:23:17;;;;;;;19.23;12.35;;;10.10;99.90;;;;;;5009451;28;20030;-71
2022/04/14 00:25:44;;;;;;;25.33;14.57;;;10.10;99.90;;;;;;5014329;28;20033;-71
2022/04/14 00:28:11;;;;;;;21.30;14.23;;;10.00;99.90;;;;;;5022695;28;20520;-72
2022/04/14 00:30:36;;;;;;;30.33;15.10;;;10.00;99.90;;;;;;4999039;28;20049;-71
2022/04/14 00:33:02;;;;;;;27.20;14.65;;;9.90;99.90;;;;;;5024846;28;20060;-71
2022/04/14 00:35:27;;;;;;;23.40;14.45;;;9.90;99.90;;;;;;5006240;28;20045;-71
2022/04/14 00:37:53;;;;;;;22.60;14.93;;;9.80;99.90;;;;;;5004111;28;20500;-72
2022/04/14 00:40:19;;;;;;;20.83;15.25;;;9.80;99.90;;;;;;5006134;28;20139;-71
2022/04/14 00:42:44;;;;;;;20.38;15.40;;;9.70;99.90;;;;;;5009721;28;20046;-71
2022/04/14 00:45:10;;;;;;;23.50;15.20;;;9.70;99.90;;;;;;5021190;28;20152;-72
2022/04/14 00:47:36;;;;;;;23.92;15.50;;;9.70;99.90;;;;;;5020424;28;20116;-71
2022/04/14 00:50:03;;;;;;;26.50;17.00;;;9.60;99.90;;;;;;5006616;28;20050;-72
2022/04/14 00:52:29;;;;;;;31.65;16.98;;;9.60;99.90;;;;;;5020964;28;20049;-72
2022/04/14 00:54:55;;;;;;;24.55;16.17;;;9.60;99.90;;;;;;5005330;28;20445;-71
2022/04/14 00:57:21;;;;;;;23.70;15.75;;;9.50;99.90;;;;;;5022557;28;20143;-71
2022/04/14 00:59:46;;;;;;;29.60;16.27;;;9.50;99.90;;;;;;5005091;28;20061;-71
2022/04/14 01:02:12;;;;;;;25.38;17.58;;;9.50;99.90;;;;;;5003652;28;20052;-71
2022/04/14 01:04:38;;;;;;;30.33;17.02;;;9.50;99.90;;;;;;5000800;28;20048;-72
2022/04/14 01:07:08;;;;;;;31.30;17.85;;;9.50;99.90;;;;;;5020823;28;20176;-71
2022/04/14 01:09:34;;;;;;;26.58;17.42;;;9.50;99.90;;;;;;5002001;28;20045;-71
2022/04/14 01:12:01;;;;;;;28.85;16.83;;;9.50;99.90;;;;;;5024599;28;20053;-71
2022/04/14 01:14:31;;;;;;;26.98;17.77;;;9.50;99.90;;;;;;5002060;28;20080;-71
2022/04/14 01:17:05;;;;;;;29.13;17.92;;;9.40;99.90;;;;;;5003627;28;20109;-72
2022/04/14 01:19:32;;;;;;;32.75;18.30;;;9.40;99.90;;;;;;5004039;28;20095;-71
2022/04/14 01:22:19;;;;;;;26.73;16.75;;;9.40;99.90;;;;;;5022013;28;20049;-71
2022/04/14 01:24:45;;;;;;;26.88;17.88;;;9.30;99.90;;;;;;5020513;28;20048;-71
2022/04/14 01:27:10;;;;;;;30.80;19.05;;;9.30;99.90;;;;;;5019628;28;20159;-71
2022/04/14 01:29:37;;;;;;;29.88;18.98;;;9.30;99.90;;;;;;5020017;28;20045;-71
2022/04/14 01:32:03;;;;;;;34.13;20.45;;;9.30;99.90;;;;;;5004721;28;20107;-70
2022/04/14 01:34:32;;;;;;;35.38;20.02;;;9.30;99.90;;;;;;5021025;28;20050;-71
2022/04/14 01:36:58;;;;;;;36.35;20.92;;;9.30;99.90;;;;;;5020568;28;20057;-70
2022/04/14 01:39:24;;;;;;;33.13;20.58;;;9.30;99.90;;;;;;5004344;28;20503;-71
2022/04/14 01:41:50;;;;;;;36.83;21.77;;;9.40;99.90;;;;;;5004092;28;20065;-70
2022/04/14 01:44:15;;;;;;;35.10;21.95;;;9.40;99.90;;;;;;5003461;28;20037;-71
2022/04/14 01:46:41;;;;;;;37.25;21.83;;;9.40;99.90;;;;;;5003660;28;20054;-71
2022/04/14 01:49:08;;;;;;;34.85;22.92;;;9.40;99.90;;;;;;5004548;28;20041;-70
2022/04/14 01:51:34;;;;;;;34.20;22.67;;;9.40;99.90;;;;;;5003298;28;20037;-71
2022/04/14 01:54:00;;;;;;;39.88;23.00;;;9.30;99.90;;;;;;5019979;28;20061;-71
2022/04/14 01:56:26;;;;;;;37.25;22.27;;;9.30;99.90;;;;;;5005770;28;20506;-74
2022/04/14 01:58:54;;;;;;;40.70;23.67;;;9.30;99.90;;;;;;5026479;28;20485;-72
2022/04/14 02:01:21;;;;;;;41.25;24.20;;;9.30;99.90;;;;;;5001896;28;20038;-72
2022/04/14 02:03:47;;;;;;;38.70;23.13;;;9.30;99.90;;;;;;5020776;28;20505;-72
2022/04/14 02:06:13;;;;;;;35.40;22.25;;;9.30;99.90;;;;;;5000991;28;20060;-71
2022/04/14 02:08:39;;;;;;;42.22;24.42;;;9.20;99.90;;;;;;5006794;28;20041;-71
2022/04/14 02:11:05;;;;;;;38.38;24.15;;;9.20;99.90;;;;;;5006349;28;20060;-72
2022/04/14 02:13:31;;;;;;;37.65;23.30;;;9.20;99.90;;;;;;5003327;28;20045;-71
2022/04/14 02:15:57;;;;;;;36.78;22.75;;;9.20;99.90;;;;;;5015567;28;20091;-72
2022/04/14 02:18:23;;;;;;;37.38;23.48;;;9.20;99.90;;;;;;5022305;28;20049;-71
2022/04/14 02:20:49;;;;;;;40.70;24.30;;;9.20;99.90;;;;;;5001969;28;20056;-71
2022/04/14 02:23:15;;;;;;;44.35;24.40;;;9.20;99.90;;;;;;5001606;28;20417;-71
2022/04/14 02:25:41;;;;;;;48.28;26.48;;;9.20;99.90;;;;;;5002902;28;20120;-71
2022/04/14 02:28:07;;;;;;;43.55;27.48;;;9.20;99.90;;;;;;5004699;28;20485;-71
2022/04/14 02:30:35;;;;;;;45.63;26.85;;;9.20;99.90;;;;;;5003007;28;20044;-72
2022/04/14 02:33:02;;;;;;;43.40;24.80;;;9.20;99.90;;;;;;5019808;28;20053;-71
2022/04/14 02:35:28;;;;;;;43.65;25.27;;;9.20;99.90;;;;;;5002002;28;20064;-71
2022/04/14 02:37:56;;;;;;;41.55;26.85;;;9.20;99.90;;;;;;5020588;28;20068;-71
2022/04/14 02:40:23;;;;;;;46.53;25.98;;;9.20;99.90;;;;;;5001315;28;20048;-71
2022/04/14 02:42:49;;;;;;;43.08;27.85;;;9.10;99.90;;;;;;5021396;28;20076;-72
2022/04/14 02:45:15;;;;;;;43.47;26.02;;;9.10;99.90;;;;;;5023093;28;20061;-72
2022/04/14 02:47:41;;;;;;;41.97;25.52;;;9.10;99.90;;;;;;5023627;28;20072;-72
2022/04/14 02:50:07;;;;;;;42.05;27.40;;;9.00;99.90;;;;;;4999557;28;20037;-72
2022/04/14 02:52:33;;;;;;;46.47;27.55;;;9.10;99.90;;;;;;5023348;28;20041;-72
2022/04/14 02:54:58;;;;;;;44.85;27.17;;;9.10;99.90;;;;;;5003747;28;20064;-72
2022/04/14 02:57:24;;;;;;;44.95;28.63;;;9.10;99.90;;;;;;5002305;28;20049;-72
2022/04/14 02:59:50;;;;;;;49.50;29.02;;;9.10;99.90;;;;;;5002885;28;20129;-72
2022/04/14 03:02:15;;;;;;;44.92;27.50;;;9.00;99.90;;;;;;5019195;28;20132;-72
2022/04/14 03:04:41;;;;;;;42.17;26.15;;;9.00;99.90;;;;;;5022418;28;20069;-72
2022/04/14 03:07:06;;;;;;;42.60;24.27;;;9.00;99.90;;;;;;5004409;28;20054;-71
2022/04/14 03:09:32;;;;;;;43.30;23.67;;;8.90;99.90;;;;;;5021536;28;20124;-71
2022/04/14 03:11:58;;;;;;;40.75;22.13;;;8.90;99.90;;;;;;5020710;28;20041;-72
2022/04/14 03:14:23;;;;;;;41.28;22.60;;;8.80;99.90;;;;;;5019476;28;21926;-72
2022/04/14 03:16:49;;;;;;;42.83;22.50;;;8.70;99.90;;;;;;5003774;28;20063;-72
2022/04/14 03:19:14;;;;;;;43.13;22.88;;;8.60;99.90;;;;;;4996580;28;20068;-72
2022/04/14 03:21:40;;;;;;;44.03;26.33;;;8.60;99.90;;;;;;5005316;28;20041;-72
2022/04/14 03:24:06;;;;;;;45.65;24.60;;;8.60;99.90;;;;;;5022401;28;20049;-72
2022/04/14 03:26:31;;;;;;;47.05;25.02;;;8.50;99.90;;;;;;5003242;28;20497;-72
2022/04/14 03:28:57;;;;;;;39.60;23.88;;;8.50;99.90;;;;;;5002376;28;20156;-72
2022/04/14 03:31:23;;;;;;;38.10;24.10;;;8.50;99.90;;;;;;5002569;28;20038;-72
2022/04/14 03:33:48;;;;;;;42.13;24.42;;;8.50;99.90;;;;;;5005107;28;20107;-72
2022/04/14 03:36:14;;;;;;;40.70;24.95;;;8.50;99.90;;;;;;5025333;28;20096;-72
2022/04/14 03:38:39;;;;;;;42.58;24.88;;;8.40;99.90;;;;;;5022475;28;20052;-72
2022/04/14 03:41:06;;;;;;;45.30;25.70;;;8.40;99.90;;;;;;5022147;28;20042;-72
2022/04/14 03:43:33;;;;;;;40.67;25.23;;;8.50;99.90;;;;;;5025545;28;20140;-72
2022/04/14 03:45:58;;;;;;;52.55;26.27;;;8.40;99.90;;;;;;5023773;28;20088;-72
2022/04/14 03:48:24;;;;;;;43.65;26.48;;;8.40;99.90;;;;;;5006567;28;20081;-72
2022/04/14 03:50:50;;;;;;;44.28;26.45;;;8.40;99.90;;;;;;5006008;28;20038;-72
2022/04/14 03:53:17;;;;;;;44.30;26.52;;;8.40;99.90;;;;;;5023113;28;20093;-72
2022/04/14 03:55:43;;;;;;;45.83;26.05;;;8.40;99.90;;;;;;5006915;28;20533;-72
2022/04/14 03:58:08;;;;;;;44.13;27.05;;;8.40;99.90;;;;;;5007908;28;20061;-71
2022/04/14 04:00:34;;;;;;;51.58;28.25;;;8.40;99.90;;;;;;5022475;28;20082;-72
2022/04/14 04:03:00;;;;;;;48.90;28.23;;;8.30;99.90;;;;;;5004026;28;20033;-72
2022/04/14 04:05:25;;;;;;;45.72;28.75;;;8.40;99.90;;;;;;5005069;28;21543;-72
2022/04/14 04:07:51;;;;;;;59.25;31.55;;;8.40;99.90;;;;;;5023697;28;20051;-72
2022/04/14 04:10:16;;;;;;;51.42;28.73;;;8.40;99.90;;;;;;5005524;28;20056;-73
2022/04/14 04:12:42;;;;;;;44.40;26.80;;;8.40;99.90;;;;;;5006104;28;20413;-72
2022/04/14 04:15:10;;;;;;;63.92;29.25;;;8.30;99.90;;;;;;5004384;28;20151;-72
2022/04/14 04:17:36;;;;;;;74.28;28.52;;;8.30;99.90;;;;;;5023124;28;20200;-72
2022/04/14 04:20:02;;;;;;;63.63;29.33;;;8.30;99.90;;;;;;5019833;28;21851;-72
2022/04/14 04:22:28;;;;;;;51.58;27.17;;;8.30;99.90;;;;;;5024655;28;20045;-72
2022/04/14 04:24:53;;;;;;;54.55;31.13;;;8.20;99.90;;;;;;5020077;28;20072;-71
2022/04/14 04:27:19;;;;;;;48.75;28.95;;;8.20;99.90;;;;;;5007092;28;20053;-71
2022/04/14 04:29:44;;;;;;;56.35;31.23;;;8.20;99.90;;;;;;5023021;28;20080;-71
2022/04/14 04:32:10;;;;;;;56.72;27.98;;;8.20;99.90;;;;;;5006572;28;20080;-71
2022/04/14 04:34:36;;;;;;;48.17;26.80;;;8.20;99.90;;;;;;5008505;28;20053;-72
2022/04/14 04:37:01;;;;;;;53.75;26.65;;;8.10;99.90;;;;;;5023408;28;20049;-72
2022/04/14 04:39:27;;;;;;;43.72;26.05;;;8.10;99.90;;;;;;5023083;28;20148;-72
2022/04/14 04:41:53;;;;;;;52.08;26.00;;;8.10;99.90;;;;;;5025226;28;20485;-73
2022/04/14 04:44:19;;;;;;;68.57;26.48;;;8.00;99.90;;;;;;5020670;28;20061;-72
2022/04/14 04:46:44;;;;;;;58.00;26.08;;;8.00;99.90;;;;;;5023060;28;20080;-72
2022/04/14 04:49:10;;;;;;;175.80;26.08;;;7.90;99.90;;;;;;5023417;28;20034;-72
2022/04/14 04:51:35;;;;;;;131.35;27.75;;;7.90;99.90;;;;;;5006585;28;20474;-72
2022/04/14 04:54:02;;;;;;;106.88;25.17;;;7.80;99.90;;;;;;5004475;28;20503;-73
2022/04/14 04:56:27;;;;;;;97.68;21.52;;;7.80;99.90;;;;;;5024796;28;20041;-73
2022/04/14 04:58:53;;;;;;;64.60;22.38;;;7.80;99.90;;;;;;5007562;28;20056;-72
2022/04/14 05:01:18;;;;;;;113.63;22.63;;;7.70;99.90;;;;;;5024894;28;20124;-72
2022/04/14 05:03:46;;;;;;;94.72;20.63;;;7.70;99.90;;;;;;5008384;28;20180;-74
2022/04/14 05:06:12;;;;;;;71.72;22.35;;;7.70;99.90;;;;;;4993817;28;20555;-73
2022/04/14 05:08:37;;;;;;;49.15;23.88;;;7.70;99.90;;;;;;5006208;28;20042;-73
2022/04/14 05:11:03;;;;;;;52.97;25.50;;;7.70;99.90;;;;;;5004296;28;20557;-72
2022/04/14 05:13:32;;;;;;;55.58;26.50;;;7.80;99.90;;;;;;5028342;28;20100;-74
2022/04/14 05:15:57;;;;;;;49.70;25.73;;;7.80;99.90;;;;;;5013631;28;20045;-72
2022/04/14 05:18:23;;;;;;;47.35;26.95;;;7.90;99.90;;;;;;5004607;28;20046;-73
2022/04/14 05:20:48;;;;;;;49.50;27.42;;;8.00;99.90;;;;;;5006879;28;20158;-72
2022/04/14 05:23:14;;;;;;;46.47;27.92;;;8.00;99.90;;;;;;5011225;28;20057;-73
2022/04/14 05:25:40;;;;;;;50.28;29.00;;;8.10;99.90;;;;;;5024502;28;20497;-72
2022/04/14 05:28:06;;;;;;;55.05;31.15;;;8.20;99.90;;;;;;5010646;28;20044;-73
2022/04/14 05:30:32;;;;;;;56.90;32.55;;;8.40;99.90;;;;;;5007174;28;20045;-72
2022/04/14 05:32:57;;;;;;;57.40;31.42;;;8.50;99.90;;;;;;5024445;28;20094;-73
2022/04/14 05:35:23;;;;;;;52.33;31.73;;;8.50;99.90;;;;;;5006585;28;20528;-73
2022/04/14 05:37:49;;;;;;;50.50;30.67;;;8.60;99.90;;;;;;5009288;28;20049;-72
2022/04/14 05:40:15;;;;;;;55.75;31.38;;;8.70;99.90;;;;;;5022356;28;20481;-70
2022/04/14 05:42:46;;;;;;;51.15;30.67;;;8.80;99.90;;;;;;5007396;28;20132;-72
2022/04/14 05:45:13;;;;;;;50.10;30.30;;;8.80;99.90;;;;;;5009954;28;20041;-72
2022/04/14 05:47:39;;;;;;;44.65;27.58;;;8.80;99.90;;;;;;5008029;28;20037;-73
2022/04/14 05:50:05;;;;;;;40.20;27.77;;;8.90;99.90;;;;;;5006412;28;20741;-72
2022/04/14 05:52:30;;;;;;;49.22;29.02;;;9.00;99.90;;;;;;5024374;28;20124;-71
2022/04/14 05:55:01;;;;;;;44.47;27.27;;;9.10;99.90;;;;;;5025282;28;20580;-73
2022/04/14 05:57:30;;;;;;;43.08;28.55;;;9.20;99.90;;;;;;5025802;28;20057;-73
2022/04/14 05:59:56;;;;;;;42.35;28.25;;;9.30;99.90;;;;;;5009265;28;20045;-70
2022/04/14 06:02:22;;;;;;;43.38;28.02;;;9.40;99.90;;;;;;5021162;28;20049;-71
2022/04/14 06:04:48;;;;;;;40.20;27.90;;;9.50;99.90;;;;;;5007500;28;20607;-70
2022/04/14 06:07:13;;;;;;;51.50;29.75;;;9.60;99.90;;;;;;5025409;28;20045;-71
2022/04/14 06:09:39;;;;;;;43.70;26.77;;;9.70;99.90;;;;;;5004749;28;20125;-70
2022/04/14 06:12:05;;;;;;;40.35;26.35;;;9.70;99.90;;;;;;5023415;28;20052;-71
2022/04/14 06:14:33;;;;;;;43.30;26.75;;;9.80;99.90;;;;;;5027922;28;20133;-72
2022/04/14 06:16:58;;;;;;;39.03;26.88;;;9.90;99.90;;;;;;5008505;28;20045;-72
2022/04/14 06:19:24;;;;;;;47.95;29.42;;;10.00;99.90;;;;;;5023323;28;20037;-72
2022/04/14 06:21:49;;;;;;;53.63;34.08;;;10.10;99.90;;;;;;5028074;28;20041;-72
2022/04/14 06:24:15;;;;;;;54.97;39.45;;;10.20;99.90;;;;;;5005727;28;20050;-72
2022/04/14 06:26:41;;;;;;;65.07;42.72;;;10.20;99.90;;;;;;5028818;28;20041;-72
2022/04/14 06:29:06;;;;;;;65.45;44.60;;;10.30;99.90;;;;;;5007126;28;20052;-72
2022/04/14 06:31:32;;;;;;;69.07;50.65;;;10.30;99.90;;;;;;5009874;28;20044;-72
2022/04/14 06:33:58;;;;;;;70.18;50.35;;;10.40;99.90;;;;;;5009471;28;20061;-72
2022/04/14 06:36:23;;;;;;;68.93;46.75;;;10.50;99.90;;;;;;5009757;28;20489;-72
2022/04/14 06:38:49;;;;;;;54.22;38.00;;;10.60;99.90;;;;;;5009115;28;20046;-72
2022/04/14 06:41:14;;;;;;;48.35;36.35;;;10.70;99.90;;;;;;5009105;28;20053;-72
2022/04/14 06:43:40;;;;;;;50.05;35.08;;;10.70;99.90;;;;;;5024980;28;20125;-72
2022/04/14 06:46:06;;;;;;;48.35;34.05;;;10.90;99.90;;;;;;5007520;28;20049;-72
2022/04/14 06:48:31;;;;;;;45.60;31.67;;;11.00;99.90;;;;;;5005929;28;20045;-73
2022/04/14 06:50:59;;;;;;;40.65;28.25;;;11.20;99.90;;;;;;5019800;28;20117;-73
2022/04/14 06:53:25;;;;;;;46.35;29.95;;;11.20;99.90;;;;;;5025754;28;20621;-73
2022/04/14 06:55:52;;;;;;;45.03;27.15;;;11.40;99.90;;;;;;5021000;28;20037;-72
2022/04/14 06:58:18;;;;;;;40.13;25.40;;;11.50;99.90;;;;;;5023091;28;20038;-73
2022/04/14 07:00:44;;;;;;;37.45;24.10;;;11.60;99.90;;;;;;5004584;28;20528;-73
2022/04/14 07:03:10;;;;;;;35.05;23.38;;;11.70;99.90;;;;;;5021919;28;20052;-73
2022/04/14 07:05:35;;;;;;;39.53;23.58;;;11.80;99.90;;;;;;5021972;28;20045;-73
2022/04/14 07:08:01;;;;;;;35.78;22.33;;;11.90;99.90;;;;;;5027588;28;20041;-73
2022/04/14 07:10:27;;;;;;;34.80;21.85;;;12.00;99.90;;;;;;5026672;28;20091;-73
2022/04/14 07:12:55;;;;;;;31.77;21.00;;;12.20;99.90;;;;;;5008459;28;20037;-73
2022/04/14 07:15:21;;;;;;;37.42;20.33;;;12.30;99.90;;;;;;5004357;28;20512;-73
2022/04/14 07:17:47;;;;;;;29.63;19.92;;;12.40;99.90;;;;;;5024143;28;20133;-72
2022/04/14 07:20:14;;;;;;;30.08;20.65;;;12.40;99.90;;;;;;4987208;28;20125;-73
2022/04/14 07:22:49;;;;;;;30.73;20.42;;;12.60;99.90;;;;;;5006219;28;20157;-73
2022/04/14 07:25:15;;;;;;;31.38;20.67;;;12.70;99.90;;;;;;5008461;28;20045;-73
2022/04/14 07:27:42;;;;;;;29.60;19.30;;;12.80;99.90;;;;;;5007588;28;20056;-73
2022/04/14 07:30:08;;;;;;;29.90;19.80;;;12.80;99.90;;;;;;5003392;28;20041;-72
2022/04/14 07:32:43;;;;;;;29.80;19.52;;;12.90;99.90;;;;;;5026078;28;20040;-72
2022/04/14 07:35:09;;;;;;;28.60;18.40;;;13.00;99.90;;;;;;5005268;28;20191;-73
2022/04/14 07:37:38;;;;;;;27.17;19.55;;;13.10;99.90;;;;;;5025248;28;20119;-73
2022/04/14 07:40:05;;;;;;;28.95;17.83;;;13.20;99.90;;;;;;5024976;28;20038;-73
2022/04/14 07:42:51;;;;;;;24.80;16.17;;;13.30;99.90;;;;;;5022889;28;20524;-74
2022/04/14 07:45:19;;;;;;;24.02;15.95;;;13.40;99.90;;;;;;4998900;28;20124;-74
2022/04/14 07:47:45;;;;;;;27.33;16.80;;;13.50;99.90;;;;;;5005609;28;20056;-74
2022/04/14 07:50:14;;;;;;;27.92;17.85;;;13.50;99.90;;;;;;5024011;28;20056;-74
2022/04/14 07:52:49;;;;;;;28.88;18.38;;;13.60;99.90;;;;;;5008997;28;20049;-74
2022/04/14 07:55:29;;;;;;;26.20;16.73;;;13.70;99.90;;;;;;5023091;28;20041;-73
2022/04/14 07:57:58;;;;;;;25.05;16.55;;;13.70;99.90;;;;;;5004491;28;20046;-72
2022/04/14 08:00:24;;;;;;;23.33;16.45;;;13.90;99.90;;;;;;5003996;28;20582;-73
2022/04/14 08:02:56;;;;;;;23.75;16.60;;;14.00;99.90;;;;;;5006309;28;20049;-73
2022/04/14 08:05:29;;;;;;;26.88;16.10;;;14.00;99.90;;;;;;5009194;28;20053;-73
2022/04/14 08:07:55;;;;;;;26.25;17.52;;;14.10;99.90;;;;;;5022849;28;20052;-73
2022/04/14 08:10:21;;;;;;;21.48;15.32;;;14.30;99.90;;;;;;4996413;28;20066;-73
2022/04/14 08:12:47;;;;;;;23.13;15.15;;;14.50;99.90;;;;;;5025065;28;20046;-73
2022/04/14 08:15:13;;;;;;;23.40;13.77;;;14.60;99.90;;;;;;5025848;28;20053;-72
2022/04/14 08:17:42;;;;;;;22.98;15.77;;;14.70;99.90;;;;;;5002879;28;20049;-73
2022/04/14 08:20:10;;;;;;;20.10;14.48;;;14.70;99.90;;;;;;5003508;28;20053;-72
2022/04/14 08:22:48;;;;;;;26.58;15.60;;;14.80;99.90;;;;;;5010776;28;20435;-72
2022/04/14 08:25:16;;;;;;;19.55;14.02;;;14.80;99.90;;;;;;5025026;28;20103;-72
2022/04/14 08:27:41;;;;;;;21.67;14.80;;;14.90;99.90;;;;;;5011546;28;20512;-73
2022/04/14 08:30:07;;;;;;;21.98;14.38;;;15.00;99.90;;;;;;5009259;28;20049;-73
2022/04/14 08:32:34;;;;;;;20.33;12.35;;;15.10;99.90;;;;;;5008284;28;20485;-71
2022/04/14 08:35:01;;;;;;;18.05;12.77;;;15.10;99.90;;;;;;5007489;28;20075;-73
2022/04/14 08:37:27;;;;;;;22.17;13.90;;;15.10;99.90;;;;;;5007053;28;20057;-73
2022/04/14 08:39:53;;;;;;;20.08;13.23;;;15.20;99.90;;;;;;5028621;28;20149;-73
2022/04/14 08:42:24;;;;;;;22.30;13.68;;;15.20;99.90;;;;;;5028863;28;20122;-73
2022/04/14 08:44:57;;;;;;;17.40;11.65;;;15.30;99.90;;;;;;5004916;28;20135;-72
2022/04/14 08:47:27;;;;;;;19.73;11.40;;;15.40;99.90;;;;;;5007944;28;20107;-73
2022/04/14 08:49:54;;;;;;;16.60;9.93;;;15.60;99.90;;;;;;5011140;28;20046;-72
2022/04/14 08:52:21;;;;;;;15.20;10.43;;;15.60;99.90;;;;;;5011948;28;20516;-73
2022/04/14 08:54:49;;;;;;;19.80;10.48;;;15.70;99.90;;;;;;5009586;28;20141;-81
2022/04/14 08:57:15;;;;;;;12.70;7.57;;;15.80;99.90;;;;;;5027796;28;20111;-72
2022/04/14 08:59:46;;;;;;;12.63;8.23;;;15.90;99.90;;;;;;5011131;28;20262;-72
2022/04/14 09:02:16;;;;;;;15.18;7.95;;;15.90;99.90;;;;;;5024013;28;20044;-72
2022/04/14 09:04:43;;;;;;;13.32;7.22;;;16.00;99.90;;;;;;5012048;28;20042;-72
2022/04/14 09:07:10;;;;;;;12.02;7.00;;;15.90;99.90;;;;;;5027897;28;20049;-72
2022/04/14 09:09:35;;;;;;;12.88;7.78;;;16.00;99.90;;;;;;5029954;28;20155;-73
2022/04/14 09:12:01;;;;;;;11.68;7.65;;;16.10;99.90;;;;;;5026645;28;20117;-72
2022/04/14 09:14:28;;;;;;;15.07;8.05;;;16.10;99.90;;;;;;5023902;28;20037;-73
2022/04/14 09:16:54;;;;;;;11.75;7.68;;;16.20;99.90;;;;;;5025719;28;20045;-73
2022/04/14 09:19:20;;;;;;;11.75;7.43;;;16.30;99.90;;;;;;5002673;28;20107;-72
2022/04/14 09:22:08;;;;;;;12.65;7.88;;;16.30;99.90;;;;;;5029113;28;20046;-73
2022/04/14 09:24:49;;;;;;;11.07;5.72;;;16.30;99.90;;;;;;5011357;28;20409;-73
2022/04/14 09:27:25;;;;;;;10.13;4.82;;;16.30;99.90;;;;;;5006607;28;20066;-72
2022/04/14 09:29:52;;;;;;;9.13;5.13;;;16.40;99.90;;;;;;5005934;28;20049;-73
2022/04/14 09:32:43;;;;;;;10.73;6.25;;;16.50;99.90;;;;;;5009001;28;20067;-72
2022/04/14 09:35:18;;;;;;;10.80;6.90;;;16.60;99.90;;;;;;5027425;28;20053;-73
2022/04/14 09:37:43;;;;;;;12.25;7.30;;;16.60;99.90;;;;;;5026439;28;20045;-73
2022/04/14 09:40:10;;;;;;;14.23;6.50;;;16.50;99.90;;;;;;5023331;28;20139;-73
2022/04/14 09:42:51;;;;;;;11.63;4.65;;;16.60;99.90;;;;;;5007081;28;20045;-73
2022/04/14 09:45:24;;;;;;;6.75;4.25;;;16.60;99.90;;;;;;5006010;28;20038;-73
2022/04/14 09:47:53;;;;;;;7.63;3.65;;;16.70;99.90;;;;;;5009001;28;20038;-72
2022/04/14 09:50:27;;;;;;;8.68;4.15;;;16.70;99.90;;;;;;5026182;28;20037;-73
2022/04/14 09:53:07;;;;;;;9.00;4.78;;;16.70;99.90;;;;;;5023087;28;21102;-72
2022/04/14 09:55:40;;;;;;;10.43;5.60;;;16.60;99.90;;;;;;5021249;28;20045;-72
2022/04/14 09:58:13;;;;;;;11.32;6.03;;;16.60;99.90;;;;;;5009505;28;20049;-72
2022/04/14 10:00:41;;;;;;;11.15;5.68;;;16.60;99.90;;;;;;5006819;28;20049;-72
2022/04/14 10:03:11;;;;;;;12.55;7.25;;;16.60;99.90;;;;;;5006023;28;20145;-72
2022/04/14 10:05:37;;;;;;;9.20;5.13;;;16.60;99.90;;;;;;5010909;28;20511;-73
2022/04/14 10:08:07;;;;;;;11.73;5.57;;;16.70;99.90;;;;;;5008455;28;20489;-73
2022/04/14 10:10:33;;;;;;;12.25;6.45;;;16.80;99.90;;;;;;5007115;28;20064;-73
2022/04/14 10:13:05;;;;;;;13.52;7.22;;;16.90;99.90;;;;;;5008524;28;20049;-73
2022/04/14 10:15:39;;;;;;;9.85;5.80;;;17.00;99.90;;;;;;5001629;28;20115;-73
2022/04/14 10:18:08;;;;;;;12.02;6.00;;;16.90;99.90;;;;;;5006762;28;20737;-73
2022/04/14 10:20:35;;;;;;;11.25;6.93;;;17.10;99.90;;;;;;5023832;28;20461;-73
2022/04/14 10:23:02;;;;;;;13.70;7.15;;;17.10;99.90;;;;;;5007886;28;20046;-73
2022/04/14 10:25:29;;;;;;;13.63;7.63;;;17.30;99.90;;;;;;5007451;28;20065;-72
2022/04/14 10:27:58;;;;;;;11.45;6.80;;;17.30;99.90;;;;;;5008298;28;20042;-73
2022/04/14 10:30:24;;;;;;;11.80;7.43;;;17.40;99.90;;;;;;5006244;28;20068;-73
2022/04/14 10:32:53;;;;;;;10.93;6.30;;;17.40;99.90;;;;;;5010576;28;20069;-72
2022/04/14 10:35:18;;;;;;;11.20;6.28;;;17.40;99.90;;;;;;5009890;28;20053;-72
2022/04/14 10:37:50;;;;;;;14.20;7.40;;;17.30;99.90;;;;;;5028638;28;20532;-73
2022/04/14 10:40:16;;;;;;;12.32;6.78;;;17.40;99.90;;;;;;5008832;28;20100;-73
2022/04/14 10:42:49;;;;;;;14.60;7.75;;;17.30;99.90;;;;;;5027571;28;20049;-74
2022/04/14 10:45:17;;;;;;;11.38;7.45;;;17.20;99.90;;;;;;5004856;28;20462;-73
2022/04/14 10:47:42;;;;;;;14.00;7.32;;;17.20;99.90;;;;;;5004465;28;20416;-73
2022/04/14 10:50:27;;;;;;;11.32;6.00;;;17.10;99.90;;;;;;5006296;28;20634;-73
2022/04/14 10:53:07;;;;;;;10.70;6.07;;;17.10;99.90;;;;;;5003776;28;20041;-73
2022/04/14 10:55:45;;;;;;;12.00;5.82;;;17.00;99.90;;;;;;5008844;28;20046;-73
2022/04/14 10:58:40;;;;;;;9.13;5.35;;;17.00;99.90;;;;;;5006645;28;20394;-73
2022/04/14 11:01:07;;;;;;;9.52;5.03;;;17.00;99.90;;;;;;4973323;28;20052;-72
2022/04/14 11:03:49;;;;;;;12.13;6.03;;;17.00;99.90;;;;;;5027246;28;20488;-72
2022/04/14 11:06:40;;;;;;;11.90;5.13;;;17.10;99.90;;;;;;5021794;28;20060;-73
2022/04/14 11:09:08;;;;;;;9.75;5.15;;;17.10;99.90;;;;;;5002680;28;20172;-72
2022/04/14 11:11:59;;;;;;;7.57;3.53;;;17.20;99.90;;;;;;5024465;28;20439;-73
2022/04/14 11:14:25;;;;;;;8.27;4.50;;;17.20;99.90;;;;;;5021002;28;20106;-73
2022/04/14 11:16:50;;;;;;;7.80;3.83;;;17.20;99.90;;;;;;5002888;28;20048;-73
2022/04/14 11:19:19;;;;;;;6.03;3.13;;;17.10;99.90;;;;;;5023501;28;20068;-73
2022/04/14 11:22:04;;;;;;;8.30;3.45;;;17.20;99.90;;;;;;5008092;28;20103;-74
2022/04/14 11:24:36;;;;;;;5.95;3.08;;;17.20;99.90;;;;;;5007673;28;20092;-74
2022/04/14 11:27:11;;;;;;;10.50;3.97;;;17.10;99.90;;;;;;5021270;28;20065;-72
2022/04/14 11:29:37;;;;;;;11.90;4.47;;;17.20;99.90;;;;;;5021559;28;20435;-73
2022/04/14 11:32:04;;;;;;;10.57;4.20;;;17.20;99.90;;;;;;5007328;28;20071;-73
2022/04/14 11:34:34;;;;;;;9.45;4.07;;;17.20;99.90;;;;;;5021460;28;20042;-73
2022/04/14 11:37:01;;;;;;;9.60;4.32;;;17.30;99.90;;;;;;5024095;28;20440;-79
2022/04/14 11:39:30;;;;;;;9.13;3.78;;;17.30;99.90;;;;;;5030893;28;20100;-78
2022/04/14 11:42:07;;;;;;;8.10;3.90;;;17.30;99.90;;;;;;4995063;28;20137;-80
2022/04/14 11:44:34;;;;;;;8.60;3.85;;;17.10;99.90;;;;;;4984685;28;20093;-71
2022/04/14 11:47:01;;;;;;;7.28;3.90;;;17.10;99.90;;;;;;4988029;28;20414;-71
2022/04/14 11:49:34;;;;;;;9.95;4.78;;;17.20;99.90;;;;;;4988852;28;20047;-72
2022/04/14 11:52:05;;;;;;;9.55;4.72;;;17.20;99.90;;;;;;4992408;28;20177;-72
2022/04/14 11:54:30;;;;;;;7.53;4.28;;;17.50;99.90;;;;;;4984577;28;20590;-70
2022/04/14 11:56:57;;;;;;;10.23;5.10;;;17.40;99.90;;;;;;4989064;28;20054;-71
2022/04/14 11:59:35;;;;;;;10.40;5.65;;;17.40;99.90;;;;;;4989262;28;20501;-72
2022/04/14 12:02:07;;;;;;;10.38;5.32;;;17.50;99.90;;;;;;4999626;28;20054;-71
2022/04/14 12:04:35;;;;;;;13.18;6.00;;;17.50;99.90;;;;;;4996093;28;20121;-71
2022/04/14 12:07:00;;;;;;;9.98;5.40;;;17.50;99.90;;;;;;4993374;28;20453;-72
2022/04/14 12:09:26;;;;;;;10.90;4.43;;;17.50;99.90;;;;;;4987954;28;20054;-72
2022/04/14 12:11:52;;;;;;;11.13;5.70;;;17.50;99.90;;;;;;4994129;28;20066;-72
2022/04/14 12:14:19;;;;;;;10.65;4.70;;;17.50;99.90;;;;;;4992180;28;20050;-72
2022/04/14 12:16:53;;;;;;;8.93;3.80;;;17.50;99.90;;;;;;4994123;28;20131;-71
2022/04/14 12:19:22;;;;;;;11.02;4.45;;;17.50;99.90;;;;;;4996817;28;20113;-71
2022/04/14 12:22:02;;;;;;;11.13;3.35;;;17.40;99.90;;;;;;4995120;28;20042;-72
2022/04/14 12:24:29;;;;;;;11.15;4.05;;;17.30;99.90;;;;;;4986939;28;20502;-71
2022/04/14 12:26:56;;;;;;;9.55;3.95;;;17.50;99.90;;;;;;4990400;28;20054;-72
2022/04/14 12:29:22;;;;;;;7.32;3.50;;;17.50;99.90;;;;;;4988935;28;20085;-74
2022/04/14 12:31:49;;;;;;;9.63;3.72;;;17.40;99.90;;;;;;4993538;28;20051;-72
2022/04/14 12:34:15;;;;;;;10.98;3.40;;;17.50;99.90;;;;;;4990569;28;20035;-73
2022/04/14 12:36:40;;;;;;;8.73;3.90;;;17.50;99.90;;;;;;4994971;28;20083;-73
2022/04/14 12:39:20;;;;;;;10.57;4.15;;;17.40;99.90;;;;;;4984865;28;20035;-70